Lake Tahoe, California
Current Conditions -  °F | °C
As of 6:53 AM on Monday 22 Dec 2014 (Local Time) from KTVL Reporting Station
Clear Clear  
Wind Chill: 26°   Ceiling: Unl
Heat Index: 31°   Visibility: 10mi
Dew Point: 26°   Wind: 5mph
Humidity: 82%   Direction: 220°SW
Pressure: 30.32"   Gusts: NA
Location:  38.9°N, 120°W
Report Text: KTVL 221453Z AUTO 22004KT 10SM CLR M01/M03 A3032 RMK AO2 SLP263 I3000 T10061033 56001
Loading
Personal Weather Stations






























Interactive Weather Map New forecast layout! Learn more

10-Day Weather Forecast

Advertisements
Track Severe Weather on mobile